createdAt,value
2018-07-23T00:02:26.222Z,6.13
2018-07-23T00:04:59.353Z,7.53
2018-07-23T00:07:31.921Z,7.00
2018-07-23T00:10:04.734Z,7.37
2018-07-23T00:12:38.274Z,6.43
2018-07-23T00:15:11.273Z,6.90
2018-07-23T00:17:44.438Z,6.43
2018-07-23T00:20:18.295Z,7.40
2018-07-23T00:22:50.753Z,6.77
2018-07-23T00:25:23.136Z,6.90
2018-07-23T00:28:02.158Z,8.20
2018-07-23T00:30:37.429Z,6.20
2018-07-23T00:33:09.968Z,7.43
2018-07-23T00:35:42.487Z,7.47
2018-07-23T00:38:21.340Z,8.17
2018-07-23T00:40:57.225Z,8.33
2018-07-23T00:43:31.905Z,6.30
2018-07-23T00:46:04.450Z,6.53
2018-07-23T00:48:36.921Z,6.73
2018-07-23T00:51:09.358Z,7.50
2018-07-23T00:53:41.766Z,6.87
2018-07-23T00:56:14.238Z,7.73
2018-07-23T00:58:46.916Z,8.83
2018-07-23T01:01:20.070Z,7.77
2018-07-23T01:03:52.518Z,7.67
2018-07-23T01:06:24.941Z,6.90
2018-07-23T01:08:57.994Z,8.03
2018-07-23T01:11:30.356Z,7.90
2018-07-23T01:14:03.901Z,6.50
2018-07-23T01:16:37.215Z,5.93
2018-07-23T01:19:09.587Z,7.13
2018-07-23T01:21:41.959Z,10.90
2018-07-23T01:24:14.698Z,8.90
2018-07-23T01:26:51.704Z,8.10
2018-07-23T01:29:26.170Z,7.83
2018-07-23T01:31:59.217Z,8.67
2018-07-23T01:34:34.605Z,6.73
2018-07-23T01:37:08.769Z,6.70
2018-07-23T01:39:41.280Z,7.10
2018-07-23T01:42:13.969Z,7.47
2018-07-23T01:44:47.930Z,6.30
2018-07-23T01:47:22.570Z,8.57
2018-07-23T01:49:58.156Z,6.70
2018-07-23T01:52:31.139Z,6.90
2018-07-23T01:55:03.663Z,7.50
2018-07-23T01:57:36.105Z,8.00
2018-07-23T02:00:09.370Z,7.87
2018-07-23T02:02:41.984Z,8.07
2018-07-23T02:05:14.654Z,6.37
2018-07-23T02:08:31.286Z,6.90
2018-07-23T02:11:06.280Z,6.10
2018-07-23T02:13:38.724Z,7.53
2018-07-23T02:19:31.945Z,7.30
2018-07-23T02:22:04.134Z,7.47
2018-07-23T02:24:36.313Z,7.90
2018-07-23T02:27:08.726Z,8.00
2018-07-23T02:29:41.253Z,6.37
2018-07-23T02:32:13.512Z,7.07
2018-07-23T02:34:45.862Z,7.97
2018-07-23T02:37:18.338Z,8.03
2018-07-23T02:39:50.648Z,6.43
2018-07-23T02:42:22.779Z,7.00
2018-07-23T02:48:16.357Z,8.23
2018-07-23T02:50:49.074Z,8.07
2018-07-23T02:53:21.899Z,8.03
2018-07-23T02:55:53.513Z,7.10
2018-07-23T02:58:26.276Z,6.20
2018-07-23T03:00:59.012Z,6.63
2018-07-23T03:03:31.726Z,7.40
2018-07-23T03:06:04.433Z,7.83
2018-07-23T03:08:38.268Z,8.57
2018-07-23T03:11:11.450Z,6.77
2018-07-23T03:13:44.217Z,6.50
2018-07-23T03:16:17.088Z,6.67
2018-07-23T03:18:50.410Z,7.20
2018-07-23T03:21:23.740Z,6.57
2018-07-23T03:23:56.719Z,6.93
2018-07-23T03:26:29.508Z,7.63
2018-07-23T03:29:02.184Z,7.10
2018-07-23T03:31:42.463Z,9.33
2018-07-23T03:34:29.015Z,7.80
2018-07-23T03:37:02.461Z,8.67
2018-07-23T03:39:35.318Z,7.43
2018-07-23T03:42:08.284Z,8.67
2018-07-23T03:48:01.589Z,8.13
2018-07-23T03:50:34.006Z,7.10
2018-07-23T03:53:06.873Z,7.60
2018-07-23T03:55:39.317Z,6.77
2018-07-23T03:58:11.641Z,7.37
2018-07-23T04:00:44.070Z,7.40
2018-07-23T04:03:16.589Z,6.70
2018-07-23T04:05:49.933Z,6.13
2018-07-23T04:08:22.255Z,6.23
2018-07-23T04:10:54.534Z,5.77
2018-07-23T04:13:28.464Z,6.40
2018-07-23T04:16:00.926Z,6.63
2018-07-23T04:18:33.497Z,7.30
2018-07-23T04:21:05.841Z,7.77
2018-07-23T04:23:38.137Z,6.80
2018-07-23T04:26:10.482Z,8.00
2018-07-23T04:28:43.405Z,6.60
2018-07-23T04:31:15.719Z,7.17
2018-07-23T04:33:48.087Z,7.20
2018-07-23T04:36:20.338Z,6.87
2018-07-23T04:38:51.526Z,7.37
2018-07-23T04:44:44.857Z,6.23
2018-07-23T04:47:17.129Z,6.93
2018-07-23T04:49:49.485Z,6.73
2018-07-23T04:59:04.614Z,7.80
2018-07-23T05:01:37.607Z,6.03
2018-07-23T05:04:10.293Z,7.87
2018-07-23T05:06:43.050Z,5.97
2018-07-23T05:09:15.721Z,6.63
2018-07-23T05:11:48.432Z,7.33
2018-07-23T05:14:21.204Z,5.73
2018-07-23T05:16:53.863Z,7.10
2018-07-23T05:19:26.699Z,7.07
2018-07-23T05:21:59.444Z,7.03
2018-07-23T05:24:32.167Z,6.50
2018-07-23T05:30:25.401Z,5.37
2018-07-23T05:32:57.768Z,7.47
2018-07-23T05:35:30.124Z,6.47
2018-07-23T05:38:02.485Z,7.30
2018-07-23T05:43:55.658Z,6.90
2018-07-23T05:46:28.031Z,5.47
2018-07-23T05:49:00.187Z,8.90
2018-07-23T05:51:32.524Z,7.87
2018-07-23T05:54:37.906Z,8.17
2018-07-23T05:57:10.333Z,8.00
2018-07-23T05:59:42.751Z,8.23
2018-07-23T06:02:16.144Z,7.70
2018-07-23T06:04:48.394Z,7.73
2018-07-23T06:07:20.614Z,7.40
2018-07-23T06:09:52.873Z,6.33
2018-07-23T06:12:25.147Z,6.33
2018-07-23T06:14:57.401Z,7.20
2018-07-23T06:17:29.646Z,7.67
2018-07-23T06:20:02.003Z,6.97
2018-07-23T06:22:34.359Z,8.03
2018-07-23T06:25:07.090Z,6.97
2018-07-23T06:31:10.418Z,6.97
2018-07-23T06:33:42.988Z,8.70
2018-07-23T06:36:15.521Z,7.30
2018-07-23T06:38:47.813Z,7.60
2018-07-23T06:41:20.330Z,7.73
2018-07-23T06:43:53.081Z,7.80
2018-07-23T06:46:25.369Z,6.97
2018-07-23T06:48:57.764Z,7.70
2018-07-23T06:51:30.113Z,8.10
2018-07-23T06:57:24.483Z,7.00
2018-07-23T06:59:57.896Z,8.50
2018-07-23T07:02:30.776Z,7.63
2018-07-23T07:05:03.707Z,6.53
2018-07-23T07:07:36.618Z,9.33
2018-07-23T07:10:09.778Z,10.43
2018-07-23T07:12:42.631Z,9.27
2018-07-23T07:15:15.823Z,9.07
2018-07-23T07:17:49.018Z,7.90
2018-07-23T07:20:21.907Z,8.13
2018-07-23T07:22:55.235Z,9.23
2018-07-23T07:25:28.189Z,9.47
2018-07-23T07:28:01.469Z,7.80
2018-07-23T07:30:34.331Z,7.37
2018-07-23T07:33:07.301Z,7.20
2018-07-23T07:35:40.219Z,8.53
2018-07-23T07:38:13.147Z,8.97
2018-07-23T07:40:46.195Z,8.00
2018-07-23T07:43:19.186Z,7.83
2018-07-23T07:45:52.207Z,8.33
2018-07-23T07:48:25.162Z,8.00
2018-07-23T07:50:58.151Z,7.93
2018-07-23T07:53:31.512Z,8.43
2018-07-23T07:56:05.049Z,8.53
2018-07-23T07:58:38.039Z,8.73
2018-07-23T08:01:10.980Z,8.13
2018-07-23T08:03:43.929Z,8.37
2018-07-23T08:06:16.857Z,8.50
2018-07-23T08:08:49.768Z,10.23
2018-07-23T08:11:22.698Z,8.37
2018-07-23T08:13:55.611Z,9.10
2018-07-23T08:16:28.585Z,9.70
2018-07-23T08:19:02.337Z,10.33
2018-07-23T08:21:35.219Z,8.77
2018-07-23T08:24:08.134Z,9.53
2018-07-23T08:26:39.657Z,8.90
2018-07-23T08:29:12.526Z,8.77
2018-07-23T08:31:45.567Z,8.33
2018-07-23T08:34:18.580Z,8.10
2018-07-23T08:36:51.671Z,8.67
2018-07-23T08:39:24.614Z,8.33
2018-07-23T08:41:57.528Z,7.07
2018-07-23T08:44:30.394Z,8.60
2018-07-23T08:47:03.910Z,9.00
2018-07-23T08:49:36.755Z,7.07
2018-07-23T08:52:09.715Z,8.00
2018-07-23T08:54:42.594Z,8.40
2018-07-23T08:57:15.613Z,7.23
2018-07-23T08:59:48.508Z,8.07
2018-07-23T09:02:19.914Z,7.93
2018-07-23T09:04:52.837Z,7.70
2018-07-23T09:07:26.142Z,7.90
2018-07-23T09:09:58.635Z,8.47
2018-07-23T09:12:31.060Z,8.27
2018-07-23T09:15:03.487Z,8.80
2018-07-23T09:17:36.097Z,9.03
2018-07-23T09:20:08.635Z,8.20
2018-07-23T09:22:41.100Z,9.00
2018-07-23T09:25:13.558Z,9.77
2018-07-23T09:27:46.070Z,9.73
2018-07-23T09:30:22.971Z,8.97
2018-07-23T09:36:16.555Z,9.97
2018-07-23T09:38:49.460Z,8.93
2018-07-23T09:41:22.200Z,9.23
2018-07-23T09:43:54.941Z,11.03
2018-07-23T09:46:27.772Z,9.33
2018-07-23T09:49:00.720Z,8.77
2018-07-23T09:51:33.702Z,8.97
2018-07-23T09:54:06.583Z,8.97
2018-07-23T09:56:39.379Z,8.83
2018-07-23T09:59:12.114Z,8.73
2018-07-23T10:01:45.066Z,10.27
2018-07-23T10:04:17.903Z,9.63
2018-07-23T10:06:50.754Z,9.93
2018-07-23T10:09:23.628Z,9.13
2018-07-23T10:11:56.408Z,9.03
2018-07-23T10:15:01.255Z,9.47
2018-07-23T10:17:33.624Z,9.77
2018-07-23T10:20:07.007Z,9.03
2018-07-23T10:22:39.309Z,10.03
2018-07-23T10:25:11.783Z,12.47
2018-07-23T10:27:44.133Z,10.57
2018-07-23T10:30:16.477Z,13.27
2018-07-23T10:32:48.831Z,12.67
2018-07-23T10:38:43.060Z,9.93
2018-07-23T10:41:15.978Z,9.50
2018-07-23T10:43:48.852Z,11.77
2018-07-23T10:46:20.321Z,12.43
2018-07-23T10:48:53.137Z,10.70
2018-07-23T10:51:25.945Z,10.83
2018-07-23T10:53:58.808Z,10.13
2018-07-23T10:56:31.630Z,8.53
2018-07-23T10:59:04.369Z,8.63
2018-07-23T11:01:37.164Z,13.27
2018-07-23T11:04:10.031Z,15.97
2018-07-23T11:06:42.892Z,22.23
2018-07-23T11:09:16.516Z,11.13
2018-07-23T11:11:49.472Z,8.10
2018-07-23T11:14:22.355Z,9.47
2018-07-23T11:16:55.190Z,11.83
2018-07-23T11:22:44.781Z,9.73
2018-07-23T11:25:38.703Z,10.33
2018-07-23T11:27:49.310Z,9.50
2018-07-23T11:30:21.544Z,7.67
2018-07-23T11:32:53.985Z,8.00
2018-07-23T11:35:26.642Z,9.40
2018-07-23T11:38:02.035Z,8.57
2018-07-23T11:40:34.231Z,8.07
2018-07-23T11:43:06.430Z,10.90
2018-07-23T11:45:38.350Z,11.17
2018-07-23T11:48:09.746Z,10.67
2018-07-23T11:50:41.952Z,8.63
2018-07-23T11:53:14.192Z,9.40
2018-07-23T11:55:46.331Z,7.73
2018-07-23T11:58:18.421Z,9.13
2018-07-23T12:00:50.621Z,9.23
2018-07-23T12:03:22.890Z,8.90
2018-07-23T12:05:55.124Z,10.30
2018-07-23T12:08:27.405Z,9.33
2018-07-23T12:10:59.590Z,10.53
2018-07-23T12:13:31.701Z,8.60
2018-07-23T12:16:03.916Z,9.53
2018-07-23T12:18:36.942Z,8.63
2018-07-23T12:21:09.096Z,7.13
2018-07-23T12:23:41.249Z,8.30
2018-07-23T12:26:13.429Z,8.67
2018-07-23T12:28:45.718Z,9.50
2018-07-23T12:31:18.046Z,10.23
2018-07-23T12:33:51.118Z,12.07
2018-07-23T12:36:26.789Z,11.77
2018-07-23T12:39:04.197Z,10.87
2018-07-23T12:41:39.480Z,8.87
2018-07-23T12:44:14.718Z,10.33
2018-07-23T12:46:49.865Z,10.20
2018-07-23T12:49:24.571Z,10.30
2018-07-23T12:52:01.931Z,10.53
2018-07-23T12:54:34.091Z,12.07
2018-07-23T12:57:06.442Z,9.67
2018-07-23T12:59:38.661Z,8.43
2018-07-23T13:02:10.850Z,8.67
2018-07-23T13:04:42.996Z,8.43
2018-07-23T13:07:15.393Z,7.73
2018-07-23T13:09:48.657Z,7.53
2018-07-23T13:13:03.620Z,9.53
2018-07-23T13:15:36.706Z,9.43
2018-07-23T13:18:09.098Z,11.00
2018-07-23T13:20:40.195Z,13.20
2018-07-23T13:23:12.512Z,10.03
2018-07-23T13:25:44.904Z,11.23
2018-07-23T13:28:17.370Z,10.27
2018-07-23T13:30:48.453Z,9.47
2018-07-23T13:33:20.714Z,11.07
2018-07-23T13:35:53.042Z,9.87
2018-07-23T13:38:25.375Z,9.63
2018-07-23T13:40:57.731Z,8.87
2018-07-23T13:43:29.993Z,10.50
2018-07-23T13:46:02.613Z,9.50
2018-07-23T13:48:35.318Z,8.13
2018-07-23T13:51:07.628Z,7.93
2018-07-23T13:53:39.941Z,8.90
2018-07-23T13:56:12.293Z,9.87
2018-07-23T13:58:44.573Z,8.47
2018-07-23T14:01:18.133Z,7.63
2018-07-23T14:03:50.499Z,8.67
2018-07-23T14:06:23.052Z,8.57
2018-07-23T14:08:55.356Z,9.03
2018-07-23T14:11:29.691Z,10.47
2018-07-23T14:14:02.045Z,9.57
2018-07-23T14:16:35.315Z,8.97
2018-07-23T14:19:09.868Z,8.43
2018-07-23T14:21:44.222Z,10.10
2018-07-23T14:24:17.014Z,11.27
2018-07-23T14:26:54.385Z,9.43
2018-07-23T14:29:27.593Z,9.30
2018-07-23T14:32:00.686Z,9.43
2018-07-23T14:34:33.032Z,7.80
2018-07-23T14:37:05.337Z,8.93
2018-07-23T14:39:37.691Z,9.00
2018-07-23T14:42:10.788Z,9.97
2018-07-23T14:44:43.327Z,9.80
2018-07-23T14:47:15.774Z,9.60
2018-07-23T14:49:48.214Z,11.37
2018-07-23T14:52:20.477Z,9.33
2018-07-23T14:54:58.708Z,11.70
2018-07-23T14:57:46.530Z,12.53
2018-07-23T15:00:24.087Z,9.20
2018-07-23T15:02:57.558Z,11.67
2018-07-23T15:05:30.264Z,9.73
2018-07-23T15:08:03.401Z,11.17
2018-07-23T15:10:45.822Z,10.72
2018-07-23T15:13:20.439Z,9.78
2018-07-23T15:21:51.908Z,10.35
2018-07-23T15:24:28.981Z,10.50
2018-07-23T15:27:03.090Z,13.25
2018-07-23T15:29:36.839Z,10.15
2018-07-23T15:32:23.469Z,10.20
2018-07-23T15:34:59.294Z,10.68
2018-07-23T16:16:54.110Z,11.88
2018-07-23T16:19:36.733Z,11.05
2018-07-23T16:22:32.835Z,15.53
2018-07-23T16:25:07.781Z,12.07
2018-07-23T16:27:44.241Z,13.75
2018-07-23T16:30:23.510Z,12.00
2018-07-23T16:39:47.814Z,11.63
2018-07-23T16:42:43.567Z,13.98
2018-07-23T16:45:38.899Z,12.47
2018-07-23T16:48:19.197Z,17.35
2018-07-23T16:51:02.189Z,14.85
2018-07-23T16:56:56.665Z,14.10
2018-07-23T16:59:40.232Z,11.28
2018-07-23T17:02:17.252Z,12.95
2018-07-23T17:04:50.271Z,13.32
2018-07-23T17:07:23.569Z,11.57
2018-07-23T17:10:00.299Z,13.58
2018-07-23T17:12:35.779Z,14.68
2018-07-23T17:15:08.488Z,12.60
2018-07-23T17:17:42.008Z,15.10
2018-07-23T17:20:14.800Z,14.20
2018-07-23T17:22:50.272Z,17.87
2018-07-23T17:25:24.432Z,15.38
2018-07-23T17:30:44.783Z,16.12
2018-07-23T17:33:17.409Z,15.38
2018-07-23T17:35:52.948Z,12.70
2018-07-23T17:38:29.399Z,15.63
2018-07-23T17:41:06.931Z,14.23
2018-07-23T17:44:02.243Z,15.13
2018-07-23T17:46:53.848Z,14.45
2018-07-23T17:49:29.681Z,16.60
2018-07-23T17:52:29.236Z,14.80
2018-07-23T17:58:20.726Z,15.35
2018-07-23T18:01:01.239Z,15.05
2018-07-23T18:06:49.862Z,19.15
2018-07-23T18:09:45.909Z,16.73
2018-07-23T18:12:38.804Z,14.58
2018-07-23T18:15:19.371Z,15.68
2018-07-23T18:17:59.845Z,16.55
2018-07-23T18:20:53.289Z,17.92
2018-07-23T18:23:34.409Z,17.80
2018-07-23T18:26:21.572Z,17.32
2018-07-23T18:29:17.069Z,15.15
2018-07-23T18:31:50.500Z,15.28
2018-07-23T18:34:40.572Z,17.62
2018-07-23T18:37:25.155Z,18.00
2018-07-23T18:40:10.861Z,16.42
2018-07-23T18:42:54.961Z,15.78
2018-07-23T18:45:39.510Z,16.30
2018-07-23T19:01:13.981Z,14.65
2018-07-23T19:03:48.897Z,17.45
2018-07-23T19:06:25.106Z,16.97
2018-07-23T19:09:13.447Z,16.90
2018-07-23T19:11:47.461Z,18.17
2018-07-23T19:14:21.764Z,16.87
2018-07-23T19:16:56.921Z,14.50
2018-07-23T19:19:35.593Z,14.58
2018-07-23T19:22:27.189Z,16.50
2018-07-23T19:25:00.238Z,15.75
2018-07-23T19:27:35.432Z,15.38
2018-07-23T19:30:09.463Z,15.50
2018-07-23T19:32:42.728Z,13.75
2018-07-23T19:35:16.818Z,15.88
2018-07-23T19:37:49.259Z,16.05
2018-07-23T19:40:21.961Z,15.58
2018-07-23T19:42:55.091Z,16.07
2018-07-23T19:45:27.594Z,15.58
2018-07-23T19:47:59.951Z,14.38
2018-07-23T19:50:32.305Z,16.85
2018-07-23T19:53:04.740Z,16.65
2018-07-23T19:55:36.959Z,16.30
2018-07-23T19:58:09.480Z,16.42
2018-07-23T20:00:42.163Z,16.50
2018-07-23T20:03:14.488Z,16.17
2018-07-23T20:05:46.807Z,16.82
2018-07-23T20:08:19.176Z,15.95
2018-07-23T20:10:51.472Z,18.52
2018-07-23T20:13:23.903Z,14.53
2018-07-23T20:15:57.097Z,16.20
2018-07-23T20:18:29.610Z,16.17
2018-07-23T20:21:01.932Z,18.15
2018-07-23T20:23:34.211Z,16.87
2018-07-23T20:26:06.762Z,15.40
2018-07-23T20:28:39.624Z,17.35
2018-07-23T20:31:12.589Z,14.68
2018-07-23T20:33:45.272Z,15.78
2018-07-23T20:36:56.697Z,18.17
2018-07-23T20:39:29.088Z,18.30
2018-07-23T20:42:01.585Z,15.68
2018-07-23T20:44:33.964Z,18.50
2018-07-23T20:47:07.913Z,16.95
2018-07-23T20:49:40.264Z,15.70
2018-07-23T20:52:12.705Z,15.88
2018-07-23T20:54:45.089Z,14.43
2018-07-23T20:57:17.481Z,16.02
2018-07-23T20:59:49.893Z,16.15
2018-07-23T21:02:23.382Z,17.02
2018-07-23T21:04:56.062Z,17.40
2018-07-23T21:07:33.012Z,17.98
2018-07-23T21:10:12.863Z,16.87
2018-07-23T21:12:52.455Z,16.60
2018-07-23T21:15:25.335Z,13.40
2018-07-23T21:21:18.900Z,17.77
2018-07-23T21:23:51.565Z,18.48
2018-07-23T21:26:24.163Z,15.98
2018-07-23T21:28:56.774Z,17.10
2018-07-23T21:31:29.382Z,16.62
2018-07-23T21:34:02.026Z,20.72
2018-07-23T21:39:56.220Z,26.73
2018-07-23T21:42:29.266Z,16.75
2018-07-23T21:48:19.876Z,15.78
2018-07-23T21:54:12.984Z,15.43
2018-07-23T21:56:46.388Z,16.17
2018-07-23T21:59:22.361Z,22.22
2018-07-23T22:01:56.399Z,20.30
2018-07-23T22:04:33.553Z,36.95
2018-07-23T22:07:06.050Z,15.85
2018-07-23T22:09:38.556Z,18.67
2018-07-23T22:15:32.844Z,15.83
2018-07-23T22:18:09.121Z,15.48
2018-07-23T22:20:42.515Z,16.87
2018-07-23T22:23:59.089Z,17.50
2018-07-23T22:26:39.300Z,37.53
2018-07-23T22:29:18.463Z,16.00
2018-07-23T22:31:52.611Z,18.20
2018-07-23T22:34:28.373Z,15.72
2018-07-23T22:37:01.219Z,64.20
2018-07-23T22:39:38.741Z,43.45
2018-07-23T22:42:12.316Z,15.30
2018-07-23T22:44:49.208Z,14.58
2018-07-23T22:47:23.232Z,15.72
2018-07-23T22:49:56.102Z,16.20
2018-07-23T22:52:28.901Z,17.20
2018-07-23T22:55:03.400Z,16.60
2018-07-23T22:57:36.965Z,15.28
2018-07-23T23:00:12.286Z,14.45
2018-07-23T23:02:46.984Z,13.80
2018-07-23T23:05:27.946Z,15.55
2018-07-23T23:08:00.972Z,15.10
2018-07-23T23:11:21.693Z,14.47
2018-07-23T23:14:02.506Z,17.77
2018-07-23T23:16:47.993Z,13.15
2018-07-23T23:19:21.657Z,13.93
2018-07-23T23:21:55.267Z,14.13
2018-07-23T23:24:28.638Z,17.95
2018-07-23T23:30:23.968Z,15.25
2018-07-23T23:32:58.950Z,13.75
2018-07-23T23:35:40.143Z,12.98
2018-07-23T23:38:15.050Z,15.25
2018-07-23T23:40:48.646Z,12.07
2018-07-23T23:43:24.329Z,14.80
2018-07-23T23:46:02.997Z,15.43
2018-07-23T23:48:41.736Z,13.58
2018-07-23T23:51:17.952Z,13.22
2018-07-23T23:54:05.369Z,12.67
2018-07-23T23:56:45.762Z,12.90
